sensor_id;sensor_type;location;lat;lon;timestamp;temperature;humidity
51938;DHT22;37966;49.454;32.024;2023-06-14T18:44:25;21.10;93.00
51938;DHT22;37966;49.454;32.024;2023-06-14T18:46:51;20.90;93.70
51938;DHT22;37966;49.454;32.024;2023-06-14T18:49:16;20.80;94.90
51938;DHT22;37966;49.454;32.024;2023-06-14T18:51:42;20.90;95.50
51938;DHT22;37966;49.454;32.024;2023-06-14T18:54:13;20.90;96.10
51938;DHT22;37966;49.454;32.024;2023-06-14T18:56:45;20.90;96.70
51938;DHT22;37966;49.454;32.024;2023-06-14T18:59:11;20.90;97.20
51938;DHT22;37966;49.454;32.024;2023-06-14T19:01:36;21.00;97.50
51938;DHT22;37966;49.454;32.024;2023-06-14T19:04:05;21.00;97.70
51938;DHT22;37966;49.454;32.024;2023-06-14T19:06:30;21.00;97.90
51938;DHT22;37966;49.454;32.024;2023-06-14T19:09:01;21.00;98.20
51938;DHT22;37966;49.454;32.024;2023-06-14T19:11:27;21.00;98.40
51938;DHT22;37966;49.454;32.024;2023-06-14T19:13:53;21.00;98.60
51938;DHT22;37966;49.454;32.024;2023-06-14T19:16:18;21.00;99.00
51938;DHT22;37966;49.454;32.024;2023-06-14T19:18:44;21.00;99.00
51938;DHT22;37966;49.454;32.024;2023-06-14T19:21:09;21.00;99.00
51938;DHT22;37966;49.454;32.024;2023-06-14T19:23:35;21.00;99.20
51938;DHT22;37966;49.454;32.024;2023-06-14T19:26:03;21.00;99.00
51938;DHT22;37966;49.454;32.024;2023-06-14T19:28:28;21.00;98.90
51938;DHT22;37966;49.454;32.024;2023-06-14T19:30:54;21.00;98.80
51938;DHT22;37966;49.454;32.024;2023-06-14T19:33:23;21.00;98.70
51938;DHT22;37966;49.454;32.024;2023-06-14T19:35:49;21.00;98.70
51938;DHT22;37966;49.454;32.024;2023-06-14T19:38:14;20.90;98.80
51938;DHT22;37966;49.454;32.024;2023-06-14T19:40:40;20.90;98.90
51938;DHT22;37966;49.454;32.024;2023-06-14T19:43:07;20.90;99.00
51938;DHT22;37966;49.454;32.024;2023-06-14T19:45:34;20.90;99.10
51938;DHT22;37966;49.454;32.024;2023-06-14T19:48:00;20.90;99.20
51938;DHT22;37966;49.454;32.024;2023-06-14T19:50:25;20.90;99.30
51938;DHT22;37966;49.454;32.024;2023-06-14T19:52:56;20.90;99.30
51938;DHT22;37966;49.454;32.024;2023-06-14T19:55:24;20.90;99.30
51938;DHT22;37966;49.454;32.024;2023-06-14T19:57:50;20.90;99.20
51938;DHT22;37966;49.454;32.024;2023-06-14T20:00:15;20.90;99.50
51938;DHT22;37966;49.454;32.024;2023-06-14T20:02:41;20.90;99.30
51938;DHT22;37966;49.454;32.024;2023-06-14T20:05:07;20.90;99.40
51938;DHT22;37966;49.454;32.024;2023-06-14T20:07:33;20.90;99.40
51938;DHT22;37966;49.454;32.024;2023-06-14T20:09:59;20.80;99.50
51938;DHT22;37966;49.454;32.024;2023-06-14T20:12:24;20.80;99.60
51938;DHT22;37966;49.454;32.024;2023-06-14T20:14:50;20.80;99.60
51938;DHT22;37966;49.454;32.024;2023-06-14T20:17:16;20.70;99.70
51938;DHT22;37966;49.454;32.024;2023-06-14T20:19:42;20.70;99.70
51938;DHT22;37966;49.454;32.024;2023-06-14T20:22:08;20.70;99.80
51938;DHT22;37966;49.454;32.024;2023-06-14T20:24:34;20.60;99.80
51938;DHT22;37966;49.454;32.024;2023-06-14T20:26:59;20.60;99.90
51938;DHT22;37966;49.454;32.024;2023-06-14T20:29:25;20.50;99.90
51938;DHT22;37966;49.454;32.024;2023-06-14T20:31:50;20.40;99.90
51938;DHT22;37966;49.454;32.024;2023-06-14T20:34:16;20.40;99.90
51938;DHT22;37966;49.454;32.024;2023-06-14T20:36:43;20.30;99.90
51938;DHT22;37966;49.454;32.024;2023-06-14T20:39:08;20.30;99.90
51938;DHT22;37966;49.454;32.024;2023-06-14T20:41:36;20.20;99.90
51938;DHT22;37966;49.454;32.024;2023-06-14T20:44:04;20.10;99.90
51938;DHT22;37966;49.454;32.024;2023-06-14T20:46:31;20.10;99.90
